Time;durP1;ratioP1;P1;durP2;ratioP2;P2;SDS_P1;SDS_P2;PMS_P1;PMS_P2;Temp;Humidity;BMP_temperature;BMP_pressure;BME280_temperature;BME280_humidity;BME280_pressure;Samples;Min_cycle;Max_cycle;Signal;HPM_P1;HPM_P2
2021/06/05 00:00:43;;;;;;;9.88;4.55;;;;;;;36.04;35.20;160676.41;1746740;82;21772;-78
2021/06/05 00:03:16;;;;;;;5.53;3.72;;;;;;;36.03;35.23;160673.72;1741155;82;21321;-79
2021/06/05 00:05:53;;;;;;;6.72;3.92;;;;;;;36.00;35.20;160665.67;1746561;82;21384;-79
2021/06/05 00:08:29;;;;;;;7.03;3.50;;;;;;;35.92;35.17;160645.59;1746666;82;21207;-80
2021/06/05 00:11:05;;;;;;;8.13;4.15;;;;;;;35.89;35.09;160637.56;1746654;81;21187;-79
2021/06/05 00:13:44;;;;;;;7.45;3.87;;;;;;;35.86;35.01;160629.53;1746777;82;21242;-79
2021/06/05 00:16:20;;;;;;;8.25;3.52;;;;;;;35.82;34.99;160617.50;1746628;82;21309;-80
2021/06/05 00:18:53;;;;;;;7.17;4.37;;;;;;;35.76;34.94;160602.78;1746696;82;21316;-78
2021/06/05 00:21:26;;;;;;;6.05;3.60;;;;;;;35.71;34.94;160588.06;1747227;81;21364;-80
2021/06/05 00:24:00;;;;;;;8.73;3.95;;;;;;;35.72;34.88;160590.75;1756872;81;21653;-79
2021/06/05 00:26:32;;;;;;;11.55;4.25;;;;;;;35.60;34.95;160559.95;1768455;81;21209;-80
2021/06/05 00:29:05;;;;;;;7.25;3.75;;;;;;;35.66;34.85;160574.66;1797076;79;21415;-79
2021/06/05 00:31:37;;;;;;;6.40;3.45;;;;;;;35.63;34.79;160568.00;1811570;79;21224;-79
2021/06/05 00:34:10;;;;;;;5.97;3.45;;;;;;;35.61;34.76;160562.62;1744641;81;21178;-76
2021/06/05 00:36:42;;;;;;;5.97;2.90;;;;;;;36.15;34.19;160707.19;1773345;79;21738;-80
2021/06/05 00:39:14;;;;;;;5.75;3.62;;;;;;;35.88;34.24;160633.56;1806067;78;21382;-80
2021/06/05 00:41:47;;;;;;;8.85;4.08;;;;;;;35.78;34.39;160608.14;1811974;79;21145;-82
2021/06/05 00:44:19;;;;;;;6.87;3.77;;;;;;;35.73;34.40;160593.42;1763953;80;21300;-80
2021/06/05 00:46:52;;;;;;;5.60;3.30;;;;;;;35.72;34.38;160590.75;1766526;80;21822;-79
2021/06/05 00:49:27;;;;;;;6.70;3.62;;;;;;;35.74;34.32;160597.42;1813037;78;21726;-80
2021/06/05 00:52:01;;;;;;;5.45;3.22;;;;;;;35.64;34.36;160570.67;1804664;79;21208;-81
2021/06/05 00:54:35;;;;;;;5.33;3.10;;;;;;;35.56;34.45;160547.92;1753614;81;21322;-80
2021/06/05 00:57:08;;;;;;;8.15;4.90;;;;;;;35.48;34.52;160526.48;1755414;81;21225;-79
2021/06/05 00:59:41;;;;;;;4.62;3.25;;;;;;;35.44;34.52;160515.78;1755829;82;21795;-79
2021/06/05 01:02:15;;;;;;;6.33;3.50;;;;;;;35.47;34.49;160523.81;1755471;81;21252;-80
2021/06/05 01:04:47;;;;;;;4.83;3.25;;;;;;;35.43;34.50;160514.45;1756204;81;21198;-80
2021/06/05 01:07:27;;;;;;;6.53;3.83;;;;;;;35.48;34.43;160526.48;1756277;81;21139;-79
2021/06/05 01:10:24;;;;;;;5.45;3.33;;;;;;;35.57;34.30;160551.97;1747784;82;21179;-79
2021/06/05 01:13:04;;;;;;;4.35;2.90;;;;;;;35.45;34.38;160518.45;1726487;82;21189;-80
2021/06/05 01:15:52;;;;;;;7.55;3.12;;;;;;;35.40;34.48;160505.11;1756351;81;21174;-80
2021/06/05 01:23:05;;;;;;;5.60;3.22;;;;;;;35.39;34.53;160503.75;1755624;82;22010;-78
2021/06/05 01:26:03;;;;;;;5.62;3.08;;;;;;;35.36;34.50;160495.70;1747059;82;21301;-79
2021/06/05 01:28:48;;;;;;;4.75;2.92;;;;;;;35.34;34.50;160489.03;1746871;82;21697;-79
2021/06/05 01:31:24;;;;;;;5.90;3.00;;;;;;;35.35;34.44;160493.08;1746868;82;21343;-78
2021/06/05 01:33:56;;;;;;;5.50;2.70;;;;;;;35.15;34.58;160439.56;1746940;82;21341;-79
2021/06/05 01:36:29;;;;;;;6.45;3.33;;;;;;;35.20;34.51;160452.95;1746826;82;21392;-79
2021/06/05 01:39:07;;;;;;;4.00;2.77;;;;;;;35.18;34.51;160447.59;1746994;82;21349;-79
2021/06/05 01:41:41;;;;;;;4.65;2.50;;;;;;;35.13;34.57;160431.56;1734905;82;21808;-79
2021/06/05 01:44:14;;;;;;;8.88;3.15;;;;;;;35.14;34.51;160436.88;1747030;82;21408;-80
2021/06/05 01:46:49;;;;;;;5.08;2.72;;;;;;;35.09;34.56;160420.86;1746900;82;21324;-79
2021/06/05 01:49:24;;;;;;;8.48;3.40;;;;;;;35.13;34.47;160432.88;1746910;82;21353;-79
2021/06/05 01:52:09;;;;;;;4.40;2.52;;;;;;;35.19;34.41;160448.91;1746897;82;21250;-79
2021/06/05 01:54:47;;;;;;;4.65;2.75;;;;;;;35.11;34.43;160427.53;1722952;82;21163;-79
2021/06/05 01:57:21;;;;;;;4.25;2.83;;;;;;;35.07;34.45;160416.81;1746740;82;21300;-79
2021/06/05 01:59:59;;;;;;;5.15;2.95;;;;;;;35.07;34.45;160416.81;1776900;80;21370;-79
2021/06/05 02:02:33;;;;;;;5.90;2.45;;;;;;;35.11;34.38;160427.53;1786387;80;21360;-79
2021/06/05 02:05:08;;;;;;;4.35;2.52;;;;;;;34.98;34.48;160391.39;1742526;82;21921;-79
2021/06/05 02:07:42;;;;;;;8.68;4.15;;;;;;;34.98;34.50;160391.39;1744078;81;21121;-79
2021/06/05 02:10:17;;;;;;;3.90;2.52;;;;;;;34.97;34.46;160390.03;1745568;81;21176;-79
2021/06/05 02:12:52;;;;;;;6.10;3.20;;;;;;;34.98;34.47;160391.39;1750696;82;21156;-80
2021/06/05 02:15:48;;;;;;;8.08;2.58;;;;;;;34.94;34.48;160380.69;1750824;82;21137;-80
2021/06/05 02:18:30;;;;;;;4.92;3.25;;;;;;;35.01;34.39;160400.75;1750653;82;21129;-79
2021/06/05 02:21:12;;;;;;;6.30;2.80;;;;;;;35.11;34.25;160426.22;1786519;80;21230;-79
2021/06/05 02:23:49;;;;;;;5.37;2.70;;;;;;;35.03;34.28;160406.09;1783680;80;21296;-79
2021/06/05 02:26:23;;;;;;;5.28;2.47;;;;;;;34.95;34.33;160384.72;1764149;80;21399;-80
2021/06/05 02:28:59;;;;;;;4.85;2.60;;;;;;;34.94;34.35;160382.05;1757474;81;21459;-81
2021/06/05 02:31:32;;;;;;;7.83;2.60;;;;;;;34.95;34.32;160383.36;1766665;81;21181;-80
2021/06/05 02:34:04;;;;;;;5.37;2.37;;;;;;;34.91;34.30;160372.64;1766583;80;21368;-79
2021/06/05 02:36:43;;;;;;;5.30;2.47;;;;;;;34.88;34.32;160365.97;1788344;80;21374;-80
2021/06/05 02:39:18;;;;;;;6.37;2.95;;;;;;;34.85;34.37;160356.62;1770824;80;21366;-80
2021/06/05 02:41:53;;;;;;;7.78;2.80;;;;;;;34.81;34.41;160345.91;1728582;82;21225;-80
2021/06/05 02:44:29;;;;;;;3.70;2.58;;;;;;;34.75;34.46;160329.91;1756226;82;21172;-80
2021/06/05 02:47:04;;;;;;;3.58;2.27;;;;;;;34.71;34.48;160320.56;1756298;82;21241;-79
2021/06/05 02:49:37;;;;;;;2.70;2.15;;;;;;;34.65;34.57;160303.17;1713755;82;21379;-81
2021/06/05 02:52:32;;;;;;;6.40;2.80;;;;;;;34.67;34.55;160309.84;1749620;82;21212;-79
2021/06/05 02:55:20;;;;;;;5.00;2.27;;;;;;;34.65;34.57;160304.48;1766343;81;21209;-79
2021/06/05 02:57:55;;;;;;;6.45;2.65;;;;;;;34.67;34.60;160309.84;1775105;80;21705;-79
2021/06/05 03:00:35;;;;;;;3.70;2.50;;;;;;;34.66;34.64;160305.84;1764445;81;21217;-79
2021/06/05 03:03:10;;;;;;;3.37;2.20;;;;;;;34.65;34.71;160304.48;1762473;81;21415;-77
2021/06/05 03:05:43;;;;;;;2.92;2.52;;;;;;;34.72;34.72;160321.88;1760234;80;21170;-81
2021/06/05 03:08:22;;;;;;;3.62;2.12;;;;;;;34.81;34.65;160347.28;1766209;81;21311;-81
2021/06/05 03:10:56;;;;;;;6.00;2.52;;;;;;;34.83;34.67;160351.28;1736566;82;21233;-81
2021/06/05 03:13:28;;;;;;;3.52;2.40;;;;;;;34.76;34.80;160333.89;1736586;82;21842;-82
2021/06/05 03:16:03;;;;;;;2.67;1.98;;;;;;;34.68;35.00;160312.52;1745919;81;21160;-82
2021/06/05 03:18:38;;;;;;;7.22;2.20;;;;;;;34.65;35.11;160304.48;1766532;80;21743;-81
2021/06/05 03:21:15;;;;;;;2.72;2.30;;;;;;;34.60;35.19;160289.78;1766185;81;21232;-80
2021/06/05 03:23:49;;;;;;;4.37;2.35;;;;;;;34.58;35.37;160285.80;1749576;81;21185;-78
2021/06/05 03:26:23;;;;;;;3.17;2.58;;;;;;;34.66;35.43;160307.16;1765896;80;21775;-79
2021/06/05 03:28:56;;;;;;;4.00;2.70;;;;;;;34.66;35.52;160305.84;1766941;81;21374;-80
2021/06/05 03:31:30;;;;;;;5.50;2.70;;;;;;;34.60;35.67;160291.16;1766544;81;21710;-83
2021/06/05 03:34:04;;;;;;;2.60;2.40;;;;;;;34.60;35.78;160289.78;1766583;80;21173;-79
2021/06/05 03:36:37;;;;;;;3.47;2.10;;;;;;;34.49;35.96;160261.64;1764684;80;21169;-82
2021/06/05 03:39:11;;;;;;;5.30;2.77;;;;;;;34.56;36.13;160280.39;1759170;81;21177;-82
2021/06/05 03:41:46;;;;;;;6.00;2.45;;;;;;;34.66;36.35;160305.84;1760573;81;21886;-79
2021/06/05 03:44:20;;;;;;;6.12;3.65;;;;;;;34.69;36.64;160313.83;1765622;81;21890;-78
2021/06/05 03:46:54;;;;;;;4.97;2.87;;;;;;;34.64;36.86;160301.81;1760787;80;21745;-78
2021/06/05 03:49:28;;;;;;;3.37;2.67;;;;;;;34.55;37.08;160277.72;1762214;80;21165;-78
2021/06/05 03:52:02;;;;;;;6.97;3.20;;;;;;;34.53;37.30;160271.05;1766746;81;21170;-78
2021/06/05 03:54:34;;;;;;;5.05;3.27;;;;;;;34.56;37.49;160280.39;1746689;79;21141;-78
2021/06/05 03:57:08;;;;;;;4.85;2.90;;;;;;;34.48;37.84;160259.02;1753261;81;21220;-79
2021/06/05 03:59:40;;;;;;;6.58;2.83;;;;;;;34.56;38.04;160279.03;1761075;81;21264;-80
2021/06/05 04:02:13;;;;;;;5.28;2.85;;;;;;;34.58;38.18;160285.80;1758299;81;21430;-82
2021/06/05 04:04:45;;;;;;;6.78;2.80;;;;;;;34.50;38.44;160263.02;1762200;81;21248;-83
2021/06/05 04:07:19;;;;;;;5.45;3.40;;;;;;;34.45;38.67;160249.63;1763674;81;21684;-83
2021/06/05 04:09:51;;;;;;;4.62;3.08;;;;;;;34.38;38.89;160230.94;1754098;81;21914;-82
2021/06/05 04:12:24;;;;;;;3.62;2.90;;;;;;;34.34;38.99;160221.59;1761447;80;21795;-82
2021/06/05 04:14:58;;;;;;;7.50;3.55;;;;;;;34.36;39.13;160225.58;1759060;81;21194;-81
2021/06/05 04:17:30;;;;;;;5.20;3.05;;;;;;;34.35;39.28;160224.27;1760685;81;21304;-81
2021/06/05 04:20:08;;;;;;;4.30;2.80;;;;;;;34.48;39.23;160257.66;1756110;80;21221;-79
2021/06/05 04:22:40;;;;;;;4.75;3.33;;;;;;;34.50;39.34;160264.31;1765709;81;21763;-84
2021/06/05 04:25:15;;;;;;;3.98;2.75;;;;;;;34.34;39.58;160220.22;1758020;81;21298;-84
2021/06/05 04:27:48;;;;;;;5.95;2.80;;;;;;;34.37;39.60;160229.63;1757390;80;21941;-85
2021/06/05 04:30:23;;;;;;;6.78;2.67;;;;;;;34.43;39.57;160244.31;1746688;81;21198;-85
2021/06/05 04:32:56;;;;;;;4.95;3.00;;;;;;;34.40;39.64;160237.59;1766698;81;21382;-85
2021/06/05 04:35:29;;;;;;;5.65;3.08;;;;;;;34.59;39.51;160287.11;1765247;81;21153;-81
2021/06/05 04:38:02;;;;;;;3.40;2.65;;;;;;;34.63;39.64;160297.81;1763705;80;21692;-84
2021/06/05 04:40:35;;;;;;;5.35;3.27;;;;;;;34.69;39.74;160315.20;1765736;80;21181;-82
2021/06/05 04:43:07;;;;;;;7.45;2.37;;;;;;;34.76;39.80;160333.89;1759211;80;21176;-81
2021/06/05 04:45:39;;;;;;;4.05;2.50;;;;;;;34.81;39.98;160345.91;1764382;80;21681;-75
2021/06/05 04:48:12;;;;;;;4.05;2.60;;;;;;;34.84;40.20;160355.27;1763621;81;21209;-75
2021/06/05 04:50:45;;;;;;;3.77;2.33;;;;;;;34.86;40.25;160359.31;1766679;80;21783;-78
2021/06/05 04:53:17;;;;;;;4.17;2.12;;;;;;;34.87;40.09;160363.30;1761849;80;21213;-78
2021/06/05 04:55:50;;;;;;;5.33;2.80;;;;;;;34.86;40.06;160360.63;1763521;80;21799;-78
2021/06/05 04:58:22;;;;;;;3.45;2.25;;;;;;;34.86;39.99;160360.63;1759557;80;21174;-78
2021/06/05 05:00:55;;;;;;;3.42;2.20;;;;;;;34.87;39.88;160361.98;1766530;80;21316;-83
2021/06/05 05:03:29;;;;;;;3.95;2.08;;;;;;;34.95;39.71;160384.72;1766777;80;21311;-81
2021/06/05 05:06:03;;;;;;;7.83;2.30;;;;;;;35.02;39.47;160402.06;1751455;80;21166;-89
2021/06/05 05:08:35;;;;;;;3.00;2.22;;;;;;;35.08;39.21;160418.17;1741052;82;21756;-84
2021/06/05 05:11:10;;;;;;;2.77;1.90;;;;;;;34.91;39.22;160374.02;1753255;81;21216;-83
2021/06/05 05:13:43;;;;;;;4.40;2.00;;;;;;;34.92;39.08;160376.69;1765980;81;21174;-82
2021/06/05 05:16:17;;;;;;;3.60;1.80;;;;;;;34.92;39.00;160375.33;1764608;80;21176;-76
2021/06/05 05:18:53;;;;;;;2.83;2.10;;;;;;;34.95;38.94;160384.72;1779595;79;21276;-78
2021/06/05 05:21:26;;;;;;;5.40;2.15;;;;;;;35.16;38.67;160440.92;1763126;79;21185;-75
2021/06/05 05:24:09;;;;;;;4.03;2.40;;;;;;;35.20;38.54;160451.58;1765806;79;21201;-76
2021/06/05 05:26:48;;;;;;;3.25;1.80;;;;;;;35.21;38.46;160455.63;1767109;79;21260;-85
2021/06/05 05:29:23;;;;;;;4.70;1.67;;;;;;;35.28;38.36;160473.00;1767672;80;21685;-87
2021/06/05 05:32:00;;;;;;;3.58;2.30;;;;;;;35.36;38.15;160495.70;1771081;79;21795;-88
2021/06/05 05:34:46;;;;;;;3.47;1.92;;;;;;;35.38;38.13;160499.75;1756030;80;22576;-85
2021/06/05 05:37:22;;;;;;;2.67;1.70;;;;;;;35.44;38.06;160517.14;1734479;80;21169;-87
2021/06/05 05:39:57;;;;;;;3.92;1.70;;;;;;;35.46;38.11;160521.13;1770227;80;21205;-87
2021/06/05 05:42:40;;;;;;;3.52;2.37;;;;;;;35.47;38.21;160523.81;1764891;80;21290;-87
2021/06/05 05:45:23;;;;;;;4.90;1.65;;;;;;;35.51;38.21;160534.53;1761968;80;21566;-84
2021/06/05 05:48:16;;;;;;;3.70;1.98;;;;;;;35.60;38.27;160558.64;1772388;80;21434;-85
2021/06/05 05:51:03;;;;;;;2.45;1.87;;;;;;;35.65;38.20;160572.03;1760647;80;21870;-79
2021/06/05 05:53:39;;;;;;;2.92;1.57;;;;;;;35.72;38.08;160592.06;1759555;80;21328;-83
2021/06/05 05:56:13;;;;;;;5.50;1.95;;;;;;;35.73;38.04;160593.42;1765225;80;21185;-83
2021/06/05 05:58:48;;;;;;;4.97;1.75;;;;;;;35.75;38.08;160600.09;1752265;82;21747;-76
2021/06/05 06:01:21;;;;;;;5.83;4.03;;;;;;;35.83;37.93;160620.17;1752990;82;21232;-80
2021/06/05 06:03:56;;;;;;;5.08;3.08;;;;;;;35.82;37.73;160617.50;1755389;80;21217;-83
2021/06/05 06:06:31;;;;;;;3.52;2.22;;;;;;;35.94;37.50;160650.91;1753241;82;21372;-79
2021/06/05 06:09:03;;;;;;;4.70;1.80;;;;;;;35.99;37.45;160663.05;1753219;82;21335;-79
2021/06/05 06:11:35;;;;;;;2.33;1.70;;;;;;;35.93;37.47;160646.92;1753175;82;21402;-79
2021/06/05 06:14:08;;;;;;;5.87;1.50;;;;;;;36.03;37.09;160673.72;1753691;80;21668;-78
2021/06/05 06:16:40;;;;;;;2.47;1.40;;;;;;;36.10;36.78;160695.16;1756874;80;21359;-79
2021/06/05 06:19:13;;;;;;;4.35;2.00;;;;;;;36.24;36.41;160732.58;1784011;80;21252;-80
2021/06/05 06:21:45;;;;;;;2.98;1.80;;;;;;;36.27;36.17;160739.31;1784198;80;21362;-80
2021/06/05 06:24:18;;;;;;;2.47;1.55;;;;;;;36.30;36.05;160747.30;1783961;80;21186;-80
2021/06/05 06:26:50;;;;;;;3.37;1.50;;;;;;;36.35;35.98;160760.70;1782587;80;21185;-80
2021/06/05 06:29:29;;;;;;;1.82;1.40;;;;;;;36.41;35.96;160778.09;1757604;81;21173;-78
2021/06/05 06:31:57;;;;;;;3.10;1.50;;;;;;;36.47;35.95;160792.88;1769729;80;21339;-79
2021/06/05 06:34:30;;;;;;;3.52;1.62;;;;;;;36.52;35.96;160807.59;1749026;81;21838;-80
2021/06/05 06:37:06;;;;;;;2.58;1.62;;;;;;;36.51;35.89;160804.91;1746635;81;21736;-80
2021/06/05 06:39:38;;;;;;;3.50;2.00;;;;;;;36.57;35.83;160819.63;1769688;81;21323;-80
2021/06/05 06:42:11;;;;;;;2.02;1.70;;;;;;;36.54;35.96;160812.95;1775978;80;21208;-80
2021/06/05 06:44:44;;;;;;;2.83;1.80;;;;;;;36.53;36.03;160810.28;1769725;81;21320;-80
2021/06/05 06:47:16;;;;;;;2.30;1.70;;;;;;;36.64;35.98;160838.34;1769866;81;21189;-82
2021/06/05 06:49:49;;;;;;;3.00;1.90;;;;;;;36.76;35.83;160870.47;1769706;81;21323;-80
2021/06/05 06:52:25;;;;;;;4.20;1.90;;;;;;;36.72;35.77;160859.80;1769141;81;21276;-83
2021/06/05 06:54:56;;;;;;;2.27;1.50;;;;;;;36.72;35.86;160859.80;1769768;81;21371;-82
2021/06/05 06:57:29;;;;;;;4.22;1.70;;;;;;;36.91;35.96;160910.70;1769766;81;21372;-81
2021/06/05 07:00:02;;;;;;;7.40;1.77;;;;;;;37.08;35.85;160958.92;1769681;81;21897;-80
2021/06/05 07:02:34;;;;;;;3.60;1.75;;;;;;;37.15;35.89;160976.33;1769778;81;21307;-81
2021/06/05 07:05:07;;;;;;;3.22;2.15;;;;;;;37.27;35.76;161009.78;1745596;81;21287;-86
2021/06/05 07:07:41;;;;;;;3.20;1.60;;;;;;;37.36;35.66;161033.92;1764025;80;21229;-80
2021/06/05 07:10:14;;;;;;;2.12;1.60;;;;;;;37.39;35.59;161041.97;1759892;81;21174;-82
2021/06/05 07:12:46;;;;;;;2.02;1.52;;;;;;;37.39;35.54;161041.97;1769819;81;21224;-81
2021/06/05 07:15:18;;;;;;;2.40;1.40;;;;;;;37.44;35.34;161055.33;1769868;81;21318;-84
2021/06/05 07:17:51;;;;;;;2.85;1.60;;;;;;;37.48;35.16;161066.06;1769857;81;21876;-80
2021/06/05 07:20:25;;;;;;;1.60;1.50;;;;;;;37.57;35.00;161088.84;1769664;81;21369;-84
2021/06/05 07:22:57;;;;;;;2.22;1.22;;;;;;;37.63;34.64;161106.25;1769604;81;21208;-85
2021/06/05 07:25:30;;;;;;;2.87;1.60;;;;;;;37.65;34.33;161110.25;1769740;81;21378;-79
2021/06/05 07:28:19;;;;;;;4.58;1.15;;;;;;;37.70;34.24;161124.98;1769659;81;21304;-83
2021/06/05 07:30:52;;;;;;;3.55;1.35;;;;;;;37.73;34.08;161133.03;1744693;80;21330;-81
2021/06/05 07:33:24;;;;;;;3.15;1.75;;;;;;;37.74;33.92;161135.72;1743949;81;21765;-85
2021/06/05 07:35:57;;;;;;;1.42;1.12;;;;;;;37.81;33.71;161153.19;1731598;82;21173;-81
2021/06/05 07:38:30;;;;;;;2.92;1.45;;;;;;;37.79;33.55;161147.81;1736212;82;21205;-81
2021/06/05 07:41:03;;;;;;;3.67;1.72;;;;;;;37.86;33.34;161166.55;1754062;80;21165;-84
2021/06/05 07:43:35;;;;;;;2.27;1.50;;;;;;;37.89;33.25;161175.97;1788521;80;21691;-82
2021/06/05 07:46:07;;;;;;;2.10;1.60;;;;;;;37.96;33.43;161194.70;1753225;80;21183;-88
2021/06/05 07:48:40;;;;;;;2.58;1.40;;;;;;;38.03;33.47;161213.44;1769668;81;21229;-87
2021/06/05 07:51:12;;;;;;;2.65;1.40;;;;;;;38.03;33.51;161214.81;1769842;81;21193;-88
2021/06/05 07:53:46;;;;;;;3.17;1.40;;;;;;;38.07;33.46;161224.17;1769984;81;21312;-74
2021/06/05 07:56:20;;;;;;;4.17;1.80;;;;;;;38.01;33.40;161209.44;1766830;81;21733;-80
2021/06/05 07:58:53;;;;;;;3.80;1.82;;;;;;;37.96;33.21;161194.70;1766845;81;21340;-80
2021/06/05 08:01:25;;;;;;;2.70;1.40;;;;;;;37.82;33.26;161155.88;1763577;81;21229;-81
2021/06/05 08:03:58;;;;;;;3.37;1.40;;;;;;;37.83;33.24;161158.56;1766719;81;21854;-82
2021/06/05 08:06:30;;;;;;;1.85;1.30;;;;;;;37.84;33.03;161161.23;1767038;80;21163;-80
2021/06/05 08:09:02;;;;;;;2.87;1.57;;;;;;;37.81;32.81;161154.50;1765794;81;21218;-79
2021/06/05 08:11:35;;;;;;;2.75;1.60;;;;;;;37.85;32.70;161165.23;1788115;80;21637;-80
2021/06/05 08:14:09;;;;;;;2.30;1.22;;;;;;;37.86;32.56;161166.55;1777119;80;21322;-80
2021/06/05 08:16:41;;;;;;;2.80;1.22;;;;;;;37.86;32.51;161167.92;1741802;79;21219;-80
2021/06/05 08:19:16;;;;;;;5.95;1.35;;;;;;;37.90;32.55;161177.28;1741118;81;21209;-79
2021/06/05 08:21:48;;;;;;;2.67;1.02;;;;;;;38.07;32.72;161225.53;1739091;82;21220;-80
2021/06/05 08:24:20;;;;;;;3.15;1.32;;;;;;;38.21;32.64;161261.69;1739064;82;21228;-80
2021/06/05 08:26:53;;;;;;;3.47;1.10;;;;;;;38.33;32.50;161293.91;1739081;82;21233;-80
2021/06/05 08:29:25;;;;;;;2.72;1.32;;;;;;;38.47;32.20;161331.44;1755289;81;21165;-79
2021/06/05 08:31:57;;;;;;;6.80;1.45;;;;;;;38.58;31.81;161360.91;1769713;80;21846;-80
2021/06/05 08:34:31;;;;;;;4.62;1.30;;;;;;;38.71;31.78;161397.13;1742069;81;21760;-79
2021/06/05 08:37:03;;;;;;;1.72;1.20;;;;;;;38.73;31.58;161402.50;1737823;82;21347;-79
2021/06/05 08:39:35;;;;;;;2.30;1.37;;;;;;;38.81;31.40;161422.61;1735065;83;21206;-80
2021/06/05 08:42:08;;;;;;;7.17;1.60;;;;;;;38.92;31.41;161452.11;1735007;83;21364;-79
2021/06/05 08:44:41;;;;;;;1.62;1.07;;;;;;;38.99;31.40;161472.22;1754070;81;21153;-80
2021/06/05 08:47:24;;;;;;;3.55;1.40;;;;;;;39.19;31.11;161527.19;1767038;81;21316;-80
2021/06/05 08:49:57;;;;;;;5.47;2.67;;;;;;;39.29;30.96;161552.69;1765182;81;21725;-79
2021/06/05 08:52:46;;;;;;;4.22;1.62;;;;;;;39.40;31.02;161582.17;1767047;81;21851;-79
2021/06/05 08:55:29;;;;;;;1.82;1.30;;;;;;;39.41;30.68;161586.19;1766815;81;21189;-80
2021/06/05 08:58:44;;;;;;;3.33;1.05;;;;;;;39.39;30.34;161580.86;1766725;81;21887;-80
2021/06/05 09:01:31;;;;;;;1.70;1.15;;;;;;;39.43;30.41;161590.23;1736377;82;21230;-79
2021/06/05 09:04:06;;;;;;;2.22;1.30;;;;;;;39.48;30.80;161604.98;1757455;81;21368;-80
2021/06/05 09:06:55;;;;;;;3.33;1.20;;;;;;;39.54;30.84;161619.78;1718123;83;21413;-80
2021/06/05 09:09:40;;;;;;;6.05;1.10;;;;;;;39.60;30.58;161635.84;1784160;79;21312;-80
2021/06/05 09:12:13;;;;;;;3.08;1.40;;;;;;;39.75;30.12;161676.09;1788733;80;21311;-79
2021/06/05 09:14:47;;;;;;;2.45;1.40;;;;;;;39.81;29.68;161693.53;1788870;80;21684;-80
2021/06/05 09:17:33;;;;;;;2.58;1.37;;;;;;;39.84;29.52;161701.59;1788710;80;21691;-79
2021/06/05 09:20:17;;;;;;;2.25;1.32;;;;;;;39.83;29.72;161697.53;1785252;80;21169;-79
2021/06/05 09:22:49;;;;;;;2.33;1.22;;;;;;;39.90;29.63;161717.67;1786420;79;21750;-79
2021/06/05 09:25:27;;;;;;;3.52;0.98;;;;;;;39.95;29.55;161732.47;1788713;80;21327;-80
2021/06/05 09:28:29;;;;;;;4.42;1.60;;;;;;;39.95;29.42;161732.47;1788672;80;21168;-80
2021/06/05 09:31:22;;;;;;;3.00;1.20;;;;;;;39.96;29.31;161733.84;1779951;80;21203;-79
2021/06/05 09:33:55;;;;;;;2.00;1.47;;;;;;;39.91;29.20;161719.03;1739451;82;21322;-79
2021/06/05 09:36:35;;;;;;;1.25;1.15;;;;;;;40.01;29.09;161747.22;1739400;81;21809;-80
2021/06/05 09:39:15;;;;;;;2.72;1.40;;;;;;;40.10;28.71;161772.72;1739614;82;21188;-80
2021/06/05 09:41:49;;;;;;;2.35;1.17;;;;;;;40.17;28.59;161791.48;1736887;82;21833;-80
2021/06/05 09:44:33;;;;;;;4.55;1.20;;;;;;;40.18;28.88;161792.86;1715202;82;21331;-80
2021/06/05 09:47:13;;;;;;;6.08;1.30;;;;;;;40.36;28.79;161841.19;1741031;81;21916;-79
2021/06/05 09:49:50;;;;;;;4.83;1.30;;;;;;;40.43;29.06;161861.31;1738759;82;21373;-79
2021/06/05 09:52:30;;;;;;;4.10;2.00;;;;;;;40.46;28.87;161869.37;1739528;82;21370;-79
2021/06/05 09:55:20;;;;;;;4.83;1.40;;;;;;;40.52;28.82;161884.13;1739518;82;21365;-79
2021/06/05 09:57:52;;;;;;;8.28;2.37;;;;;;;40.55;28.98;161893.52;1739242;82;21298;-79
2021/06/05 10:00:32;;;;;;;3.20;1.60;;;;;;;40.78;29.14;161953.98;1739599;82;21200;-80
2021/06/05 10:03:31;;;;;;;5.85;1.57;;;;;;;40.86;28.81;161976.75;1739903;81;21810;-80
2021/06/05 10:06:29;;;;;;;1.17;1.07;;;;;;;40.94;28.47;161998.27;1735880;82;21671;-79
2021/06/05 10:09:06;;;;;;;8.80;1.95;;;;;;;41.09;28.29;162039.86;1742966;81;21759;-80
2021/06/05 10:11:40;;;;;;;2.42;1.32;;;;;;;41.21;28.23;162072.13;1726117;82;21191;-80
2021/06/05 10:14:19;;;;;;;2.62;1.20;;;;;;;41.27;28.14;162086.89;1710138;84;21196;-79
2021/06/05 10:17:28;;;;;;;1.40;1.30;;;;;;;41.31;27.92;162098.97;1714091;82;21199;-80
2021/06/05 10:20:23;;;;;;;2.25;1.37;;;;;;;41.26;27.83;162085.53;1708734;84;21257;-79
2021/06/05 10:22:58;;;;;;;2.55;1.20;;;;;;;41.26;27.84;162084.20;1707158;84;21381;-81
2021/06/05 10:25:35;;;;;;;3.98;1.50;;;;;;;41.26;27.70;162085.53;1708766;83;21780;-80
2021/06/05 10:28:15;;;;;;;2.37;1.98;;;;;;;41.26;27.70;162085.53;1710061;82;21218;-79
2021/06/05 10:31:02;;;;;;;3.25;2.40;;;;;;;41.27;27.80;162086.89;1739682;82;21413;-79
2021/06/05 10:34:04;;;;;;;2.00;1.80;;;;;;;41.37;27.81;162115.11;1752840;80;21390;-79
2021/06/05 10:36:46;;;;;;;2.98;1.32;;;;;;;41.46;27.72;162137.89;1789057;80;21359;-80
2021/06/05 10:39:23;;;;;;;3.90;1.45;;;;;;;41.48;27.59;162143.27;1759203;81;21210;-80
2021/06/05 10:42:02;;;;;;;2.62;1.20;;;;;;;41.47;27.54;162140.58;1759146;81;21193;-80
2021/06/05 10:44:35;;;;;;;3.40;1.12;;;;;;;41.58;27.64;162170.17;1782805;80;21272;-80
2021/06/05 10:47:13;;;;;;;6.00;1.40;;;;;;;41.59;27.71;162174.23;1761423;81;21876;-80
2021/06/05 10:50:09;;;;;;;3.83;1.35;;;;;;;41.62;27.72;162182.25;1769728;81;21205;-79
2021/06/05 10:53:00;;;;;;;3.08;1.20;;;;;;;41.68;27.34;162197.02;1769844;81;21327;-79
2021/06/05 10:55:49;;;;;;;2.35;1.30;;;;;;;41.69;27.21;162199.70;1769917;81;21308;-79
2021/06/05 10:58:43;;;;;;;3.22;1.10;;;;;;;41.62;27.22;162180.92;1769736;81;21818;-80
2021/06/05 11:01:34;;;;;;;2.85;1.75;;;;;;;41.64;27.19;162187.63;1769847;81;21382;-79
2021/06/05 11:04:08;;;;;;;2.30;1.27;;;;;;;41.57;27.10;162167.47;1739445;82;21689;-80
2021/06/05 11:06:52;;;;;;;1.72;1.20;;;;;;;41.51;27.11;162151.34;1768519;81;21173;-80
2021/06/05 11:09:34;;;;;;;1.90;1.20;;;;;;;41.42;27.31;162128.50;1788979;80;21374;-80
2021/06/05 11:12:23;;;;;;;2.17;1.10;;;;;;;41.42;26.92;162127.19;1759353;81;21247;-79
2021/06/05 11:14:57;;;;;;;3.00;1.22;;;;;;;41.42;26.92;162127.19;1761238;81;21644;-79
2021/06/05 11:17:41;;;;;;;3.90;1.50;;;;;;;41.37;27.00;162115.11;1810202;79;21316;-78
2021/06/05 11:20:24;;;;;;;3.22;1.30;;;;;;;41.33;26.93;162102.98;1810512;78;21403;-79
2021/06/05 11:23:02;;;;;;;6.72;1.32;;;;;;;41.30;26.84;162094.97;1810688;79;21323;-79
2021/06/05 11:25:47;;;;;;;5.05;1.40;;;;;;;41.20;26.91;162068.13;1810930;79;21373;-79
2021/06/05 11:28:33;;;;;;;2.70;1.20;;;;;;;41.20;26.91;162068.13;1810810;79;21671;-79
2021/06/05 11:31:43;;;;;;;2.12;1.35;;;;;;;41.19;26.99;162065.44;1809329;79;21413;-79
2021/06/05 11:34:40;;;;;;;2.90;1.50;;;;;;;41.11;27.31;162043.88;1810985;79;21179;-79
2021/06/05 11:37:20;;;;;;;1.70;1.40;;;;;;;41.14;27.54;162053.31;1811313;79;21327;-79
2021/06/05 11:39:56;;;;;;;5.20;1.30;;;;;;;41.16;27.57;162058.69;1811701;79;21343;-79
2021/06/05 11:42:47;;;;;;;1.70;1.60;;;;;;;41.15;27.43;162054.69;1811230;79;21771;-79
2021/06/05 11:45:33;;;;;;;1.52;1.30;;;;;;;41.16;27.32;162057.38;1810841;79;22459;-79
2021/06/05 11:48:26;;;;;;;4.72;1.40;;;;;;;41.20;27.13;162069.44;1811209;79;21311;-79
2021/06/05 11:51:25;;;;;;;2.45;1.50;;;;;;;41.18;27.27;162064.06;1810939;79;21378;-80
2021/06/05 11:54:15;;;;;;;2.15;1.35;;;;;;;41.20;27.37;162069.44;1811147;79;21323;-80
2021/06/05 11:56:58;;;;;;;5.70;1.65;;;;;;;41.29;27.24;162092.28;1810979;79;21157;-80
2021/06/05 11:59:42;;;;;;;1.30;1.10;;;;;;;41.38;27.05;162117.75;1810883;78;21358;-78
2021/06/05 12:02:27;;;;;;;1.92;1.02;;;;;;;41.47;27.03;162140.58;1814724;79;21366;-77
2021/06/05 12:05:13;;;;;;;2.12;1.32;;;;;;;41.60;26.81;162175.55;1811133;79;21347;-77
2021/06/05 12:07:46;;;;;;;5.58;1.60;;;;;;;41.85;26.59;162244.02;1789780;79;21212;-77
2021/06/05 12:10:40;;;;;;;3.25;1.30;;;;;;;41.85;26.59;162244.02;1810747;79;21237;-77
2021/06/05 12:13:27;;;;;;;7.05;1.50;;;;;;;42.00;26.50;162284.38;1810715;78;21790;-77
2021/06/05 12:16:21;;;;;;;2.22;1.60;;;;;;;42.00;26.50;162284.38;1810895;78;21169;-77